Time;durP1;ratioP1;P1;durP2;ratioP2;P2;SDS_P1;SDS_P2;PMS_P1;PMS_P2;Temp;Humidity;BMP_temperature;BMP_pressure;BME280_temperature;BME280_humidity;BME280_pressure;Samples;Min_cycle;Max_cycle;Signal;HPM_P1;HPM_P2
2021/07/06 00:01:12;;;;;;;20.33;18.40;;;;;;;;;;5071444;28;20037;-65
2021/07/06 00:03:58;;;;;;;21.75;19.52;;;;;;;;;;5068429;28;20044;-65
2021/07/06 00:06:43;;;;;;;21.75;19.48;;;;;;;;;;5070505;28;20036;-65
2021/07/06 00:09:29;;;;;;;22.50;20.40;;;;;;;;;;5070647;28;20055;-64
2021/07/06 00:12:15;;;;;;;22.02;19.95;;;;;;;;;;5074438;28;20105;-66
2021/07/06 00:15:00;;;;;;;23.30;20.02;;;;;;;;;;5066588;28;20128;-66
2021/07/06 00:17:46;;;;;;;23.02;20.63;;;;;;;;;;5074292;28;20422;-66
2021/07/06 00:20:31;;;;;;;22.23;19.98;;;;;;;;;;5072259;28;20048;-65
2021/07/06 00:23:17;;;;;;;22.65;20.50;;;;;;;;;;5074070;28;20122;-68
2021/07/06 00:26:02;;;;;;;26.33;20.38;;;;;;;;;;5059124;28;20405;-66
2021/07/06 00:28:47;;;;;;;21.55;19.45;;;;;;;;;;5073886;28;20053;-65
2021/07/06 00:31:33;;;;;;;21.77;19.58;;;;;;;;;;5070328;28;20046;-66
2021/07/06 00:34:18;;;;;;;20.67;18.85;;;;;;;;;;5074074;28;20055;-65
2021/07/06 00:37:05;;;;;;;20.70;18.75;;;;;;;;;;5070433;28;20067;-65
2021/07/06 00:39:51;;;;;;;21.63;18.92;;;;;;;;;;5073568;28;20052;-65
2021/07/06 00:42:40;;;;;;;19.38;17.40;;;;;;;;;;5073954;28;20045;-66
2021/07/06 00:45:25;;;;;;;19.90;17.90;;;;;;;;;;5070668;28;20049;-65
2021/07/06 00:48:10;;;;;;;18.95;17.00;;;;;;;;;;5058723;28;20056;-65
2021/07/06 00:50:55;;;;;;;18.80;16.90;;;;;;;;;;5070207;28;20076;-66
2021/07/06 00:53:41;;;;;;;18.80;16.98;;;;;;;;;;5073817;28;20567;-66
2021/07/06 00:56:26;;;;;;;18.50;16.13;;;;;;;;;;5073339;28;20059;-66
2021/07/06 00:59:12;;;;;;;17.80;16.10;;;;;;;;;;5069676;28;20126;-66
2021/07/06 01:01:57;;;;;;;16.50;14.80;;;;;;;;;;5058231;28;20050;-66
2021/07/06 01:04:42;;;;;;;15.35;13.82;;;;;;;;;;5070816;28;20061;-66
2021/07/06 01:07:27;;;;;;;16.20;14.60;;;;;;;;;;5051603;28;20040;-65
2021/07/06 01:10:13;;;;;;;15.27;13.52;;;;;;;;;;5068143;28;20052;-66
2021/07/06 01:12:58;;;;;;;16.30;14.60;;;;;;;;;;5033369;28;20045;-65
2021/07/06 01:15:43;;;;;;;18.77;13.77;;;;;;;;;;5044243;28;20045;-65
2021/07/06 01:18:29;;;;;;;17.73;13.93;;;;;;;;;;5073145;28;20127;-65
2021/07/06 01:21:14;;;;;;;16.50;13.57;;;;;;;;;;5069505;28;20047;-65
2021/07/06 01:24:00;;;;;;;14.38;13.07;;;;;;;;;;5073259;28;20045;-65
2021/07/06 01:26:45;;;;;;;15.00;13.48;;;;;;;;;;5070582;28;20040;-65
2021/07/06 01:29:31;;;;;;;13.68;12.43;;;;;;;;;;5072648;28;20047;-65
2021/07/06 01:32:16;;;;;;;13.80;12.45;;;;;;;;;;5057755;28;20471;-65
2021/07/06 01:35:01;;;;;;;13.45;12.15;;;;;;;;;;5072783;28;20395;-65
2021/07/06 01:37:47;;;;;;;13.70;12.30;;;;;;;;;;5072757;28;20045;-66
2021/07/06 01:40:34;;;;;;;14.48;12.93;;;;;;;;;;5069500;28;20047;-65
2021/07/06 01:43:21;;;;;;;14.05;12.57;;;;;;;;;;5072593;28;20513;-66
2021/07/06 01:46:07;;;;;;;13.38;12.13;;;;;;;;;;5068152;28;20058;-65
2021/07/06 01:48:52;;;;;;;12.80;11.50;;;;;;;;;;5072595;28;20041;-66
2021/07/06 01:51:37;;;;;;;14.40;11.68;;;;;;;;;;5066043;28;20406;-65
2021/07/06 01:54:23;;;;;;;13.13;11.82;;;;;;;;;;5072408;28;20054;-65
2021/07/06 01:57:08;;;;;;;13.10;11.88;;;;;;;;;;5072617;28;20178;-65
2021/07/06 01:59:53;;;;;;;16.58;12.05;;;;;;;;;;5067392;28;20044;-65
2021/07/06 02:02:40;;;;;;;13.82;12.50;;;;;;;;;;5072379;28;20157;-65
2021/07/06 02:05:30;;;;;;;13.15;11.85;;;;;;;;;;5067954;28;20052;-65
2021/07/06 02:08:16;;;;;;;14.55;13.15;;;;;;;;;;5068391;28;20056;-66
2021/07/06 02:11:01;;;;;;;15.68;12.35;;;;;;;;;;5069351;28;20044;-66
2021/07/06 02:13:46;;;;;;;13.38;11.98;;;;;;;;;;5069459;28;20055;-66
2021/07/06 02:16:32;;;;;;;13.93;11.85;;;;;;;;;;5072213;28;20049;-66
2021/07/06 02:19:17;;;;;;;12.88;11.60;;;;;;;;;;5069243;28;20585;-66
2021/07/06 02:22:02;;;;;;;13.88;11.65;;;;;;;;;;5068877;28;20037;-66
2021/07/06 02:24:48;;;;;;;13.93;11.77;;;;;;;;;;5072173;28;20080;-66
2021/07/06 02:27:33;;;;;;;12.23;10.90;;;;;;;;;;5068230;28;20039;-66
2021/07/06 02:30:23;;;;;;;12.07;10.88;;;;;;;;;;5071581;28;20067;-65
2021/07/06 02:33:08;;;;;;;13.82;11.00;;;;;;;;;;5066754;28;20051;-66
2021/07/06 02:35:53;;;;;;;12.25;10.95;;;;;;;;;;5071882;28;20048;-66
2021/07/06 02:38:39;;;;;;;15.65;11.63;;;;;;;;;;5071928;28;20044;-66
2021/07/06 02:41:25;;;;;;;11.95;10.77;;;;;;;;;;5067726;28;20509;-66
2021/07/06 02:44:10;;;;;;;12.82;10.05;;;;;;;;;;5071940;28;20048;-66
2021/07/06 02:46:56;;;;;;;16.20;10.32;;;;;;;;;;5068201;28;20052;-66
2021/07/06 02:49:41;;;;;;;12.45;10.52;;;;;;;;;;5071697;28;20056;-66
2021/07/06 02:52:27;;;;;;;11.75;10.65;;;;;;;;;;5071991;28;20098;-66
2021/07/06 02:55:13;;;;;;;10.63;9.52;;;;;;;;;;5075760;28;20048;-66
2021/07/06 02:57:58;;;;;;;11.80;9.98;;;;;;;;;;5071536;28;20049;-66
2021/07/06 03:00:43;;;;;;;12.50;10.55;;;;;;;;;;5075527;28;20055;-66
2021/07/06 03:03:29;;;;;;;11.43;10.35;;;;;;;;;;5075640;28;20059;-66
2021/07/06 03:06:14;;;;;;;11.63;9.65;;;;;;;;;;5072227;28;20149;-66
2021/07/06 03:09:00;;;;;;;10.35;9.32;;;;;;;;;;5075857;28;20126;-66
2021/07/06 03:11:45;;;;;;;11.05;9.57;;;;;;;;;;5116040;22;20032;-63
2021/07/06 03:14:31;;;;;;;11.80;9.80;;;;;;;;;;5095725;28;20505;-64
2021/07/06 03:17:16;;;;;;;9.45;8.63;;;;;;;;;;5108827;28;20051;-64
2021/07/06 03:20:02;;;;;;;12.48;10.00;;;;;;;;;;5115832;28;20048;-64
2021/07/06 03:22:47;;;;;;;12.15;9.35;;;;;;;;;;5103846;28;20058;-63
2021/07/06 03:25:33;;;;;;;12.05;8.80;;;;;;;;;;5093727;28;20064;-64
2021/07/06 03:28:18;;;;;;;13.15;9.77;;;;;;;;;;5095479;28;20054;-64
2021/07/06 03:31:04;;;;;;;10.68;9.55;;;;;;;;;;5095413;28;20043;-64
2021/07/06 03:33:52;;;;;;;9.88;8.88;;;;;;;;;;5095499;28;20040;-64
2021/07/06 03:36:37;;;;;;;11.50;9.18;;;;;;;;;;5093732;28;20048;-64
2021/07/06 03:39:23;;;;;;;10.05;9.05;;;;;;;;;;5095265;28;20138;-64
2021/07/06 03:42:09;;;;;;;9.95;9.00;;;;;;;;;;5095426;28;20052;-64
2021/07/06 03:44:55;;;;;;;11.85;8.98;;;;;;;;;;5095114;28;20093;-64
2021/07/06 03:47:40;;;;;;;12.55;9.07;;;;;;;;;;5093905;28;20056;-64
2021/07/06 03:50:26;;;;;;;9.43;8.43;;;;;;;;;;5095005;28;20105;-64
2021/07/06 03:53:11;;;;;;;11.02;8.43;;;;;;;;;;5095088;28;20405;-64
2021/07/06 03:55:56;;;;;;;10.30;8.15;;;;;;;;;;5093221;28;20378;-63
2021/07/06 03:58:42;;;;;;;12.63;8.57;;;;;;;;;;5094979;28;20059;-64
2021/07/06 04:01:27;;;;;;;10.35;8.32;;;;;;;;;;5094593;28;20058;-63
2021/07/06 04:04:13;;;;;;;9.23;7.97;;;;;;;;;;5094961;28;20052;-64
2021/07/06 04:06:58;;;;;;;9.82;8.32;;;;;;;;;;5093166;28;20047;-64
2021/07/06 04:09:43;;;;;;;8.63;7.47;;;;;;;;;;5081985;28;20045;-64
2021/07/06 04:12:29;;;;;;;8.68;7.78;;;;;;;;;;5074326;28;20490;-63
2021/07/06 04:15:15;;;;;;;8.75;6.97;;;;;;;;;;5074356;28;20045;-64
2021/07/06 04:18:00;;;;;;;9.02;7.22;;;;;;;;;;5085442;28;20052;-63
2021/07/06 04:20:45;;;;;;;8.77;6.78;;;;;;;;;;5075460;28;20442;-63
2021/07/06 04:23:30;;;;;;;7.20;6.25;;;;;;;;;;5074416;28;20044;-63
2021/07/06 04:26:16;;;;;;;8.48;6.45;;;;;;;;;;5073838;28;20078;-64
2021/07/06 04:29:02;;;;;;;8.23;5.53;;;;;;;;;;5090412;28;20124;-63
2021/07/06 04:31:47;;;;;;;7.30;5.95;;;;;;;;;;5094151;28;20044;-64
2021/07/06 04:34:32;;;;;;;6.28;5.32;;;;;;;;;;5094412;28;20044;-64
2021/07/06 04:37:18;;;;;;;6.75;5.10;;;;;;;;;;5092167;28;20054;-64
2021/07/06 04:40:04;;;;;;;6.28;5.10;;;;;;;;;;5093946;28;20047;-64
2021/07/06 04:42:52;;;;;;;8.00;4.93;;;;;;;;;;5094071;28;20056;-64
2021/07/06 04:45:37;;;;;;;7.43;4.53;;;;;;;;;;5088130;28;20039;-63
2021/07/06 04:48:23;;;;;;;5.13;4.13;;;;;;;;;;5094022;28;20166;-63
2021/07/06 04:51:10;;;;;;;5.88;3.95;;;;;;;;;;5093814;28;20417;-63
2021/07/06 04:53:55;;;;;;;3.80;3.30;;;;;;;;;;5094029;28;20050;-63
2021/07/06 04:56:40;;;;;;;4.65;3.17;;;;;;;;;;5092130;28;20063;-63
2021/07/06 04:59:25;;;;;;;3.50;2.90;;;;;;;;;;5094006;28;20044;-63
2021/07/06 05:02:11;;;;;;;4.18;3.22;;;;;;;;;;5087622;28;20113;-63
2021/07/06 05:04:56;;;;;;;3.83;2.53;;;;;;;;;;5083385;28;20610;-63
2021/07/06 05:07:42;;;;;;;4.38;3.00;;;;;;;;;;5072196;28;20446;-63
2021/07/06 05:10:27;;;;;;;3.85;2.40;;;;;;;;;;5072584;28;20047;-63
2021/07/06 05:13:12;;;;;;;9.07;2.60;;;;;;;;;;5072285;28;20052;-63
2021/07/06 05:15:58;;;;;;;5.53;2.33;;;;;;;;;;5072097;28;20043;-64
2021/07/06 05:18:43;;;;;;;2.30;2.10;;;;;;;;;;5093642;28;20051;-63
2021/07/06 05:21:29;;;;;;;2.58;2.35;;;;;;;;;;5093408;28;20452;-64
2021/07/06 05:24:14;;;;;;;3.17;1.80;;;;;;;;;;5092191;28;20054;-63
2021/07/06 05:26:59;;;;;;;3.33;1.80;;;;;;;;;;5091521;28;20162;-63
2021/07/06 05:29:44;;;;;;;4.43;1.63;;;;;;;;;;5092939;28;20470;-63
2021/07/06 05:32:30;;;;;;;3.22;1.83;;;;;;;;;;5093126;28;20048;-63
2021/07/06 05:35:15;;;;;;;3.22;1.80;;;;;;;;;;5093216;28;20047;-64
2021/07/06 05:38:02;;;;;;;2.35;2.15;;;;;;;;;;5091652;28;20066;-63
2021/07/06 05:40:53;;;;;;;7.70;1.60;;;;;;;;;;5092934;28;20075;-63
2021/07/06 05:43:39;;;;;;;3.80;1.92;;;;;;;;;;5088605;28;20048;-63
2021/07/06 05:46:24;;;;;;;2.00;1.60;;;;;;;;;;5093187;28;20051;-63
2021/07/06 05:49:10;;;;;;;2.00;1.80;;;;;;;;;;5091316;28;20048;-63
2021/07/06 05:51:55;;;;;;;2.90;1.75;;;;;;;;;;5092750;28;20606;-64
2021/07/06 05:54:41;;;;;;;5.00;2.05;;;;;;;;;;5092720;28;20059;-63
2021/07/06 05:57:29;;;;;;;2.85;1.92;;;;;;;;;;5088333;28;20050;-63
2021/07/06 06:00:15;;;;;;;5.28;1.85;;;;;;;;;;5087569;28;20072;-63
2021/07/06 06:03:01;;;;;;;4.05;2.28;;;;;;;;;;5052328;28;20052;-64
2021/07/06 06:05:47;;;;;;;3.40;1.75;;;;;;;;;;5052464;28;20048;-63
2021/07/06 06:08:32;;;;;;;3.63;1.95;;;;;;;;;;5077106;28;20048;-63
2021/07/06 06:11:18;;;;;;;3.90;1.80;;;;;;;;;;5085127;28;20044;-63
2021/07/06 06:14:03;;;;;;;3.45;2.05;;;;;;;;;;5092504;28;20094;-63
2021/07/06 06:16:49;;;;;;;3.35;2.28;;;;;;;;;;5092317;28;20052;-63
2021/07/06 06:19:34;;;;;;;4.55;2.38;;;;;;;;;;5088141;28;20043;-64
2021/07/06 06:22:19;;;;;;;2.78;2.22;;;;;;;;;;5092315;28;20050;-64
2021/07/06 06:25:05;;;;;;;2.60;1.80;;;;;;;;;;5092256;28;20048;-63
2021/07/06 06:27:50;;;;;;;3.80;2.30;;;;;;;;;;5089240;28;20197;-63
2021/07/06 06:30:35;;;;;;;3.50;2.10;;;;;;;;;;5092318;28;20047;-64
2021/07/06 06:33:21;;;;;;;2.50;2.30;;;;;;;;;;5092184;28;20044;-63
2021/07/06 06:36:06;;;;;;;2.47;2.20;;;;;;;;;;5092376;28;20052;-64
2021/07/06 06:38:52;;;;;;;5.55;2.17;;;;;;;;;;5090673;28;20632;-63
2021/07/06 06:41:37;;;;;;;5.57;2.50;;;;;;;;;;5091607;28;20054;-63
2021/07/06 06:44:23;;;;;;;5.43;3.00;;;;;;;;;;5091985;28;20048;-63
2021/07/06 06:47:08;;;;;;;3.95;2.45;;;;;;;;;;5085622;28;20512;-63
2021/07/06 06:49:54;;;;;;;3.15;2.38;;;;;;;;;;5091952;28;20044;-63
2021/07/06 06:52:39;;;;;;;2.65;2.45;;;;;;;;;;5092080;28;20460;-63
2021/07/06 06:55:24;;;;;;;3.08;2.30;;;;;;;;;;5090450;28;20090;-64
2021/07/06 06:58:10;;;;;;;3.70;2.40;;;;;;;;;;5091041;28;20051;-63
2021/07/06 07:00:55;;;;;;;2.72;2.45;;;;;;;;;;5085831;28;20055;-63
2021/07/06 07:03:40;;;;;;;3.63;2.00;;;;;;;;;;5091900;28;20047;-64
2021/07/06 07:06:26;;;;;;;3.00;2.08;;;;;;;;;;5090250;28;20401;-64
2021/07/06 07:09:12;;;;;;;6.05;2.38;;;;;;;;;;5091984;28;20051;-64
2021/07/06 07:11:57;;;;;;;3.88;2.20;;;;;;;;;;5091867;28;20040;-63
2021/07/06 07:14:42;;;;;;;3.88;2.10;;;;;;;;;;5091836;28;20044;-63
2021/07/06 07:17:28;;;;;;;3.03;1.95;;;;;;;;;;5090388;28;20092;-63
2021/07/06 07:20:13;;;;;;;6.45;2.33;;;;;;;;;;5091722;28;20094;-63
2021/07/06 07:22:59;;;;;;;3.25;2.10;;;;;;;;;;5090705;28;20047;-63
2021/07/06 07:25:44;;;;;;;2.75;2.15;;;;;;;;;;5091901;28;20055;-63
2021/07/06 07:28:30;;;;;;;3.60;1.92;;;;;;;;;;5089957;28;20044;-63
2021/07/06 07:31:15;;;;;;;5.35;2.20;;;;;;;;;;5091444;28;20051;-63
2021/07/06 07:34:01;;;;;;;3.22;1.73;;;;;;;;;;5091622;28;20051;-64
2021/07/06 07:36:47;;;;;;;5.43;2.25;;;;;;;;;;5090123;28;20063;-63
2021/07/06 07:39:33;;;;;;;1.95;1.65;;;;;;;;;;5092909;28;20050;-64
2021/07/06 07:42:20;;;;;;;3.83;2.00;;;;;;;;;;5095249;28;20078;-63
2021/07/06 07:45:06;;;;;;;4.10;2.05;;;;;;;;;;5095059;28;20052;-63
2021/07/06 07:47:51;;;;;;;4.20;2.08;;;;;;;;;;5093428;28;20413;-64
2021/07/06 07:50:37;;;;;;;3.58;1.90;;;;;;;;;;5094906;28;20173;-63
2021/07/06 07:53:22;;;;;;;3.45;1.50;;;;;;;;;;5095193;28;20048;-63
2021/07/06 07:56:08;;;;;;;2.72;1.63;;;;;;;;;;5095076;28;20047;-64
2021/07/06 07:58:53;;;;;;;2.97;1.90;;;;;;;;;;5092178;28;20170;-64
2021/07/06 08:01:38;;;;;;;2.70;1.90;;;;;;;;;;5094557;28;20172;-64
2021/07/06 08:04:24;;;;;;;3.40;1.95;;;;;;;;;;5095085;28;20047;-64
2021/07/06 08:07:10;;;;;;;4.10;1.90;;;;;;;;;;5093740;28;20048;-63
2021/07/06 08:09:55;;;;;;;2.50;1.88;;;;;;;;;;5089991;28;20055;-63
2021/07/06 08:12:41;;;;;;;4.18;1.20;;;;;;;;;;5094610;28;20043;-63
2021/07/06 08:15:26;;;;;;;3.25;1.48;;;;;;;;;;5094711;28;20058;-63
2021/07/06 08:18:12;;;;;;;6.40;1.48;;;;;;;;;;5092801;28;20535;-64
2021/07/06 08:20:57;;;;;;;4.38;1.70;;;;;;;;;;5094540;28;20056;-63
2021/07/06 08:23:42;;;;;;;2.80;1.52;;;;;;;;;;5094560;28;20117;-63
2021/07/06 08:26:28;;;;;;;3.72;1.65;;;;;;;;;;5092833;28;20040;-63
2021/07/06 08:29:14;;;;;;;3.22;1.60;;;;;;;;;;5094414;28;20044;-63
2021/07/06 08:31:59;;;;;;;3.00;1.27;;;;;;;;;;5094392;28;20040;-63
2021/07/06 08:34:44;;;;;;;3.28;1.60;;;;;;;;;;5094139;28;20620;-63
2021/07/06 08:37:30;;;;;;;3.65;1.88;;;;;;;;;;5092632;28;20108;-63
2021/07/06 08:40:15;;;;;;;5.32;1.73;;;;;;;;;;5093916;28;20059;-63
2021/07/06 08:43:01;;;;;;;3.00;1.45;;;;;;;;;;5094274;28;20158;-63
2021/07/06 08:45:47;;;;;;;3.47;1.88;;;;;;;;;;5094250;28;20051;-63
2021/07/06 08:48:32;;;;;;;3.65;1.52;;;;;;;;;;5092499;28;20048;-63
2021/07/06 08:51:22;;;;;;;3.17;1.40;;;;;;;;;;5092707;28;20122;-63
2021/07/06 08:54:07;;;;;;;3.10;1.33;;;;;;;;;;5094054;28;20067;-63
2021/07/06 08:56:52;;;;;;;3.63;1.58;;;;;;;;;;5093905;28;20048;-63
2021/07/06 08:59:38;;;;;;;3.83;1.20;;;;;;;;;;5089957;28;20063;-63
2021/07/06 09:02:24;;;;;;;3.15;1.30;;;;;;;;;;5091371;28;20056;-63
2021/07/06 09:05:21;;;;;;;5.53;1.25;;;;;;;;;;5093681;28;20115;-63
2021/07/06 09:08:08;;;;;;;2.80;1.48;;;;;;;;;;5090816;28;20052;-63
2021/07/06 09:10:53;;;;;;;4.30;1.23;;;;;;;;;;5091939;28;20130;-63
2021/07/06 09:13:38;;;;;;;5.45;1.40;;;;;;;;;;5116953;22;20123;-65
2021/07/06 09:16:27;;;;;;;3.60;1.10;;;;;;;;;;5090282;28;20044;-65
2021/07/06 09:19:19;;;;;;;4.80;2.28;;;;;;;;;;5064504;28;20048;-65
2021/07/06 09:22:14;;;;;;;4.38;1.13;;;;;;;;;;5086825;28;20215;-65
2021/07/06 09:25:03;;;;;;;5.03;1.30;;;;;;;;;;5070340;28;20041;-66
2021/07/06 09:27:49;;;;;;;1.10;0.80;;;;;;;;;;5067313;28;20044;-66
2021/07/06 09:30:34;;;;;;;1.35;0.80;;;;;;;;;;5068920;28;20047;-66
2021/07/06 09:33:29;;;;;;;9.20;1.67;;;;;;;;;;5069900;28;20044;-66
2021/07/06 09:36:31;;;;;;;53.22;4.63;;;;;;;;;;5067309;28;20053;-65
2021/07/06 09:39:20;;;;;;;1.80;0.77;;;;;;;;;;5072782;28;20123;-66
2021/07/06 09:42:11;;;;;;;10.10;1.80;;;;;;;;;;5069518;28;20047;-66
2021/07/06 09:44:57;;;;;;;9.15;1.58;;;;;;;;;;5070385;28;20051;-66
2021/07/06 09:47:43;;;;;;;1.98;0.90;;;;;;;;;;5039900;28;20044;-66
2021/07/06 09:50:29;;;;;;;2.97;0.77;;;;;;;;;;5057532;28;20195;-66
2021/07/06 09:53:32;;;;;;;2.05;0.50;;;;;;;;;;5072448;28;20043;-66
2021/07/06 09:56:18;;;;;;;1.83;0.60;;;;;;;;;;5068644;28;20548;-66
2021/07/06 09:59:05;;;;;;;1.95;0.80;;;;;;;;;;5072453;28;20086;-66
2021/07/06 10:01:59;;;;;;;4.05;0.70;;;;;;;;;;5069676;28;20044;-66
2021/07/06 10:04:44;;;;;;;2.17;0.77;;;;;;;;;;5072601;28;20093;-66
2021/07/06 10:07:29;;;;;;;1.08;0.80;;;;;;;;;;5057498;28;20048;-67
2021/07/06 10:10:15;;;;;;;2.40;0.60;;;;;;;;;;5069750;28;20495;-66
2021/07/06 10:13:01;;;;;;;3.47;0.57;;;;;;;;;;5071913;28;20094;-66
2021/07/06 10:15:46;;;;;;;1.67;0.70;;;;;;;;;;5069286;28;20063;-66
2021/07/06 10:18:32;;;;;;;2.63;1.00;;;;;;;;;;5072011;28;20134;-66
2021/07/06 10:21:18;;;;;;;1.83;1.08;;;;;;;;;;5071825;28;20056;-66
2021/07/06 10:24:04;;;;;;;3.65;0.65;;;;;;;;;;5069651;28;20059;-66
2021/07/06 10:26:49;;;;;;;3.90;0.88;;;;;;;;;;5056804;28;20052;-66
2021/07/06 10:29:35;;;;;;;2.42;0.73;;;;;;;;;;5056542;28;20044;-66
2021/07/06 10:32:37;;;;;;;3.25;0.57;;;;;;;;;;5051874;28;20047;-66
2021/07/06 10:35:40;;;;;;;2.08;0.75;;;;;;;;;;5066816;28;20067;-66
2021/07/06 10:38:29;;;;;;;1.98;0.50;;;;;;;;;;5052974;28;20272;-65
2021/07/06 10:41:33;;;;;;;3.38;0.68;;;;;;;;;;5068791;28;20119;-66
2021/07/06 10:44:18;;;;;;;2.92;0.75;;;;;;;;;;5069163;28;20044;-66
2021/07/06 10:47:04;;;;;;;1.70;0.70;;;;;;;;;;5071883;28;20143;-66
2021/07/06 10:49:49;;;;;;;1.73;1.00;;;;;;;;;;5069758;28;20048;-67
2021/07/06 10:52:35;;;;;;;4.57;1.13;;;;;;;;;;5056746;28;20384;-66
2021/07/06 10:55:33;;;;;;;6.70;0.88;;;;;;;;;;5068587;28;20048;-67
2021/07/06 10:58:37;;;;;;;12.38;1.45;;;;;;;;;;5069911;28;20041;-66
2021/07/06 11:01:37;;;;;;;5.90;1.02;;;;;;;;;;5067534;28;20051;-66
2021/07/06 11:04:50;;;;;;;10.10;1.45;;;;;;;;;;5056173;28;20048;-66
2021/07/06 11:07:36;;;;;;;;;;;;;;;;;;5068955;28;20119;-66
2021/07/06 11:10:22;;;;;;;2.33;0.80;;;;;;;;;;5067905;28;19921;-66
2021/07/06 11:13:14;;;;;;;4.45;0.90;;;;;;;;;;5071232;28;20501;-66
2021/07/06 11:16:00;;;;;;;;;;;;;;;;;;5072952;28;20051;-65
2021/07/06 11:18:47;;;;;;;5.07;0.82;;;;;;;;;;5075592;28;19920;-66
2021/07/06 11:21:33;;;;;;;6.28;0.73;;;;;;;;;;5055321;28;20108;-66
2021/07/06 11:24:18;;;;;;;2.30;0.60;;;;;;;;;;5075535;28;20155;-65
2021/07/06 11:27:04;;;;;;;5.30;1.00;;;;;;;;;;5075390;28;20051;-65
2021/07/06 11:29:49;;;;;;;1.52;0.52;;;;;;;;;;5072566;28;20036;-66
2021/07/06 11:32:34;;;;;;;3.28;0.60;;;;;;;;;;5075170;28;20406;-66
2021/07/06 11:35:20;;;;;;;2.58;0.63;;;;;;;;;;5057488;28;20048;-65
2021/07/06 11:38:06;;;;;;;1.85;0.60;;;;;;;;;;5058643;28;20054;-66
2021/07/06 11:40:55;;;;;;;7.25;0.80;;;;;;;;;;5070479;28;20051;-65
2021/07/06 11:43:41;;;;;;;2.80;0.75;;;;;;;;;;5069632;28;20119;-65
2021/07/06 11:46:27;;;;;;;3.42;0.50;;;;;;;;;;5052795;28;20414;-65
2021/07/06 11:49:12;;;;;;;5.65;0.70;;;;;;;;;;5053206;28;20053;-65
2021/07/06 11:52:00;;;;;;;2.88;0.70;;;;;;;;;;5051501;28;20033;-65
2021/07/06 11:54:45;;;;;;;3.25;0.80;;;;;;;;;;5052762;28;20060;-64
2021/07/06 11:57:31;;;;;;;2.45;0.85;;;;;;;;;;5053548;28;20051;-65
2021/07/06 12:00:17;;;;;;;2.17;0.63;;;;;;;;;;5049288;28;20049;-65
2021/07/06 12:03:18;;;;;;;2.42;0.68;;;;;;;;;;5053099;28;20520;-66
2021/07/06 12:06:03;;;;;;;3.60;0.90;;;;;;;;;;5049411;28;20064;-66
2021/07/06 12:08:49;;;;;;;4.28;0.75;;;;;;;;;;5053607;28;20040;-64
2021/07/06 12:11:34;;;;;;;5.68;0.68;;;;;;;;;;5051229;28;20052;-65
2021/07/06 12:14:20;;;;;;;2.70;0.80;;;;;;;;;;5053577;28;20052;-65
2021/07/06 12:17:05;;;;;;;5.85;0.70;;;;;;;;;;5050958;28;20036;-65
2021/07/06 12:19:51;;;;;;;5.43;0.80;;;;;;;;;;5047340;28;20060;-67
2021/07/06 12:22:36;;;;;;;5.45;1.15;;;;;;;;;;5042360;28;20554;-66
2021/07/06 12:25:21;;;;;;;2.88;0.73;;;;;;;;;;5044563;28;20518;-65
2021/07/06 12:28:06;;;;;;;4.47;0.75;;;;;;;;;;5035137;28;20045;-66
2021/07/06 12:31:11;;;;;;;3.45;0.50;;;;;;;;;;5052775;28;20051;-66
2021/07/06 12:34:02;;;;;;;8.32;1.00;;;;;;;;;;5050117;28;20045;-66
2021/07/06 12:36:55;;;;;;;5.78;0.73;;;;;;;;;;5050671;28;20077;-66
2021/07/06 12:39:41;;;;;;;5.47;0.80;;;;;;;;;;5049864;28;20167;-67
2021/07/06 12:42:26;;;;;;;3.00;0.60;;;;;;;;;;5047992;28;20682;-65
2021/07/06 12:45:12;;;;;;;3.83;0.98;;;;;;;;;;5048788;28;20041;-66
2021/07/06 12:47:57;;;;;;;5.55;1.10;;;;;;;;;;5049651;28;20071;-65
2021/07/06 12:50:43;;;;;;;4.18;0.98;;;;;;;;;;5036000;28;20438;-66
2021/07/06 12:53:28;;;;;;;7.97;1.17;;;;;;;;;;5049221;28;20045;-66
2021/07/06 12:56:43;;;;;;;5.70;0.98;;;;;;;;;;5049514;28;20048;-65
2021/07/06 12:59:29;;;;;;;5.68;1.00;;;;;;;;;;5024290;28;20435;-66
2021/07/06 13:02:19;;;;;;;5.63;1.33;;;;;;;;;;5052588;28;20048;-67
2021/07/06 13:05:04;;;;;;;6.68;0.90;;;;;;;;;;5070174;28;20054;-67
2021/07/06 13:07:50;;;;;;;6.65;0.93;;;;;;;;;;5064598;28;20135;-66
2021/07/06 13:10:38;;;;;;;4.68;1.00;;;;;;;;;;5051141;28;20120;-66
2021/07/06 13:13:27;;;;;;;7.72;1.30;;;;;;;;;;5049944;28;20049;-66
2021/07/06 13:16:14;;;;;;;9.82;1.85;;;;;;;;;;5050854;28;20045;-66
2021/07/06 13:18:59;;;;;;;4.68;1.00;;;;;;;;;;5054751;28;20049;-66
2021/07/06 13:21:45;;;;;;;7.80;1.25;;;;;;;;;;5070952;28;20064;-65
2021/07/06 13:24:31;;;;;;;8.02;0.88;;;;;;;;;;5065454;28;20060;-66
2021/07/06 13:27:16;;;;;;;7.90;1.10;;;;;;;;;;5068282;28;20521;-65
2021/07/06 13:30:02;;;;;;;3.70;0.68;;;;;;;;;;5070939;28;20055;-65
2021/07/06 13:32:48;;;;;;;3.35;0.50;;;;;;;;;;5068384;28;20051;-65
2021/07/06 13:35:33;;;;;;;3.70;0.65;;;;;;;;;;5071039;28;20040;-65
2021/07/06 13:38:19;;;;;;;4.28;1.17;;;;;;;;;;5061225;28;20057;-65
2021/07/06 13:41:05;;;;;;;8.07;0.90;;;;;;;;;;5064290;28;20125;-66
2021/07/06 13:43:51;;;;;;;8.68;0.77;;;;;;;;;;5064326;28;20569;-65
2021/07/06 13:46:36;;;;;;;11.80;1.30;;;;;;;;;;5046917;28;20048;-65
2021/07/06 13:49:21;;;;;;;6.45;0.60;;;;;;;;;;5063689;28;20040;-66
2021/07/06 13:52:07;;;;;;;5.10;0.63;;;;;;;;;;5044475;28;20059;-66
2021/07/06 13:54:53;;;;;;;6.65;1.02;;;;;;;;;;5069612;28;20073;-66
2021/07/06 13:57:38;;;;;;;3.47;0.73;;;;;;;;;;5030901;28;20052;-65
2021/07/06 14:00:24;;;;;;;6.22;0.70;;;;;;;;;;5030014;28;20456;-65
2021/07/06 14:03:12;;;;;;;3.30;0.57;;;;;;;;;;5039303;28;20549;-66
2021/07/06 14:05:57;;;;;;;2.80;1.02;;;;;;;;;;5050183;28;20044;-65
2021/07/06 14:08:44;;;;;;;2.28;0.45;;;;;;;;;;5049824;28;21430;-65
2021/07/06 14:11:30;;;;;;;7.68;0.90;;;;;;;;;;5046685;28;20407;-65
2021/07/06 14:14:15;;;;;;;11.02;1.70;;;;;;;;;;5047815;28;20510;-65
2021/07/06 14:17:00;;;;;;;5.43;1.05;;;;;;;;;;5050264;28;20064;-65
2021/07/06 14:19:45;;;;;;;3.42;0.60;;;;;;;;;;5051920;28;20054;-66
2021/07/06 14:22:31;;;;;;;7.50;1.27;;;;;;;;;;5067423;28;20055;-66
2021/07/06 14:25:16;;;;;;;5.07;1.00;;;;;;;;;;5029872;28;20046;-66
2021/07/06 14:28:01;;;;;;;3.40;0.68;;;;;;;;;;5058663;28;20054;-65
2021/07/06 14:30:46;;;;;;;5.55;0.63;;;;;;;;;;5070026;28;20125;-66
2021/07/06 14:33:32;;;;;;;3.17;0.60;;;;;;;;;;5067050;28;20048;-66
2021/07/06 14:36:17;;;;;;;2.33;1.58;;;;;;;;;;5069257;28;20090;-66
2021/07/06 14:39:03;;;;;;;3.42;0.70;;;;;;;;;;5056035;28;20503;-65
2021/07/06 14:41:53;;;;;;;6.95;1.20;;;;;;;;;;5062476;28;20047;-66
2021/07/06 14:44:38;;;;;;;4.40;0.75;;;;;;;;;;5069732;28;20170;-67
2021/07/06 14:47:24;;;;;;;4.55;0.88;;;;;;;;;;5066063;28;20090;-66
2021/07/06 14:50:09;;;;;;;8.75;1.35;;;;;;;;;;5056992;28;20043;-66
2021/07/06 14:52:54;;;;;;;8.60;1.02;;;;;;;;;;5073338;28;20421;-66
2021/07/06 14:55:40;;;;;;;2.22;0.75;;;;;;;;;;5053251;28;20064;-66
2021/07/06 14:58:26;;;;;;;5.38;0.98;;;;;;;;;;5070612;28;20186;-66
2021/07/06 15:01:11;;;;;;;16.80;1.77;;;;;;;;;;5065825;28;20135;-66
2021/07/06 15:03:56;;;;;;;3.10;0.90;;;;;;;;;;5073431;28;20580;-66
2021/07/06 15:06:42;;;;;;;3.97;0.80;;;;;;;;;;5073329;28;20054;-66
2021/07/06 15:09:28;;;;;;;2.42;1.08;;;;;;;;;;5055412;28;20096;-66
2021/07/06 15:12:14;;;;;;;3.67;0.50;;;;;;;;;;5062802;28;20113;-66
2021/07/06 15:14:59;;;;;;;4.50;0.75;;;;;;;;;;5056232;28;20102;-66
2021/07/06 15:17:45;;;;;;;3.80;0.80;;;;;;;;;;5056642;28;20037;-70
2021/07/06 15:20:30;;;;;;;2.55;0.80;;;;;;;;;;5042179;28;20040;-65
2021/07/06 15:23:15;;;;;;;4.35;0.80;;;;;;;;;;5061762;28;20056;-65
2021/07/06 15:26:00;;;;;;;6.68;1.05;;;;;;;;;;5068474;28;20470;-67
2021/07/06 15:28:46;;;;;;;6.03;0.88;;;;;;;;;;5033321;28;20131;-65
2021/07/06 15:31:31;;;;;;;2.33;0.95;;;;;;;;;;5032156;28;20507;-66
2021/07/06 15:34:17;;;;;;;5.30;0.80;;;;;;;;;;5051321;28;20514;-65
2021/07/06 15:37:02;;;;;;;4.72;1.00;;;;;;;;;;5068845;28;20040;-65
2021/07/06 15:39:48;;;;;;;7.18;1.02;;;;;;;;;;5041425;28;20044;-65
2021/07/06 15:42:33;;;;;;;3.75;1.00;;;;;;;;;;5072766;28;20511;-67
2021/07/06 15:45:18;;;;;;;3.60;0.52;;;;;;;;;;5072346;28;20056;-65
2021/07/06 15:48:04;;;;;;;3.88;0.70;;;;;;;;;;5052666;28;20048;-65
2021/07/06 15:50:49;;;;;;;4.80;1.20;;;;;;;;;;5068398;28;20070;-65
2021/07/06 15:53:35;;;;;;;4.90;1.17;;;;;;;;;;5066274;28;20133;-65
2021/07/06 15:56:21;;;;;;;4.55;1.00;;;;;;;;;;5072337;28;20410;-68
2021/07/06 15:59:06;;;;;;;6.22;1.42;;;;;;;;;;5072682;28;20473;-68
2021/07/06 16:01:51;;;;;;;4.82;1.48;;;;;;;;;;5066896;28;20054;-65
2021/07/06 16:04:41;;;;;;;8.88;1.15;;;;;;;;;;5059809;28;20041;-65
2021/07/06 16:07:27;;;;;;;5.35;0.70;;;;;;;;;;5058279;28;20509;-66
2021/07/06 16:10:12;;;;;;;5.18;0.63;;;;;;;;;;5051498;28;20049;-65
2021/07/06 16:12:58;;;;;;;4.30;0.95;;;;;;;;;;5052398;28;20068;-65
2021/07/06 16:15:43;;;;;;;6.40;0.98;;;;;;;;;;5017597;28;20041;-65
2021/07/06 16:18:28;;;;;;;4.97;1.00;;;;;;;;;;5031349;28;20041;-65
2021/07/06 16:21:14;;;;;;;1.55;0.68;;;;;;;;;;5034514;28;20041;-67
2021/07/06 16:23:59;;;;;;;2.35;0.50;;;;;;;;;;5039053;28;20183;-65
2021/07/06 16:26:44;;;;;;;1.45;0.52;;;;;;;;;;5068779;28;20059;-65
2021/07/06 16:29:30;;;;;;;1.45;0.38;;;;;;;;;;5067264;28;20091;-65
2021/07/06 16:32:15;;;;;;;1.13;0.52;;;;;;;;;;5071803;28;20047;-65